FTTC

Details ICAO FTTC (AEH)
Name ABECHE
Region Chad
Timezone Africa/Ndjamena (UTC+1.0)
Plans Departing 10
Arriving 7
Stats Elevation 1,788 ft / 545 m (AMSL)
Location 13.847442° 20.843247°
Runways 1
Magnetic Variation 2.329° E
Sunrise 2017-12-18 04:55:17 UTC / 2017-12-18 05:55:17 Local
Sunset 2017-12-18 16:13:50 UTC / 2017-12-18 17:13:50 Local
Advertisement - Login to hide

Runways

ID Width Length Bearing (true) Bearing (mag) Surface Threshold Offset Overrun Length
09 98 ft / 30 m 9,177 ft / 2,797 m 92.48° 90.15° Asphalt 0 ft / 0 m 492 ft / 150 m
27 98 ft / 30 m 9,177 ft / 2,797 m 272.48° 270.15° Asphalt 0 ft / 0 m 375 ft / 114 m

Map

Weather


0- 5 10 15 20 25 30 35+ Temperature / ° C

Clouds and Precipitation
Forecast for 2017-12-18 12:00 UTC. Updated a minute ago

Ground ~20,000 ft ~40,000 ft Winds

METAR

FTTC 181100Z 32004KT CAVOK 35/00 Q1013

TAF

Not found

Frequencies

Tower 118.10 MHz TWR
Warning: Do not use this data for real-world aviation or navigation. No guarantee of current accuracy is given.